METAR Data
IDs: Format: Raw Decoded Include TAF

Data at: 1526 UTC 27 Nov 2021

EHVK 271455Z AUTO 20010KT 170V240 9999 BKN017 OVC020 05/02 Q0990 WHT